createdAt,value
2018-08-20T00:00:30.359Z,13.17
2018-08-20T00:01:04.263Z,12.37
2018-08-20T00:01:43.611Z,13.83
2018-08-20T00:02:24.986Z,12.65
2018-08-20T00:02:58.829Z,12.13
2018-08-20T00:03:37.391Z,12.80
2018-08-20T00:04:11.286Z,12.37
2018-08-20T00:04:50.766Z,12.73
2018-08-20T00:05:24.998Z,12.27
2018-08-20T00:05:58.933Z,12.90
2018-08-20T00:06:45.163Z,13.70
2018-08-20T00:07:19.074Z,13.23
2018-08-20T00:07:57.249Z,12.25
2018-08-20T00:08:31.395Z,12.00
2018-08-20T00:09:05.098Z,12.95
2018-08-20T00:09:44.934Z,13.77
2018-08-20T00:10:19.245Z,13.40
2018-08-20T00:10:55.915Z,12.60
2018-08-20T00:11:29.798Z,13.43
2018-08-20T00:12:05.025Z,12.70
2018-08-20T00:12:38.890Z,12.97
2018-08-20T00:13:53.101Z,13.80
2018-08-20T00:14:26.893Z,12.33
2018-08-20T00:15:00.853Z,12.83
2018-08-20T00:15:34.744Z,12.43
2018-08-20T00:16:08.538Z,12.75
2018-08-20T00:16:42.591Z,12.82
2018-08-20T00:17:16.586Z,13.13
2018-08-20T00:17:50.484Z,12.68
2018-08-20T00:18:30.196Z,12.67
2018-08-20T00:19:04.182Z,12.95
2018-08-20T00:20:16.766Z,12.50
2018-08-20T00:20:50.591Z,13.57
2018-08-20T00:21:24.270Z,13.23
2018-08-20T00:21:58.795Z,12.27
2018-08-20T00:22:32.935Z,13.43
2018-08-20T00:23:06.803Z,13.23
2018-08-20T00:23:40.651Z,13.20
2018-08-20T00:24:14.579Z,13.43
2018-08-20T00:24:59.999Z,13.50
2018-08-20T00:25:33.909Z,12.70
2018-08-20T00:26:07.607Z,12.80
2018-08-20T00:26:41.286Z,13.97
2018-08-20T00:27:15.160Z,12.95
2018-08-20T00:27:48.858Z,13.10
2018-08-20T00:28:22.987Z,13.00
2018-08-20T00:28:56.551Z,13.07
2018-08-20T00:29:30.635Z,14.30
2018-08-20T00:30:06.230Z,14.13
2018-08-20T00:30:42.000Z,13.60
2018-08-20T00:31:15.774Z,13.73
2018-08-20T00:31:51.293Z,14.07
2018-08-20T00:32:24.916Z,14.03
2018-08-20T00:32:58.955Z,13.88
2018-08-20T00:33:32.793Z,13.43
2018-08-20T00:34:06.654Z,13.70
2018-08-20T00:34:41.626Z,14.13
2018-08-20T00:35:17.332Z,14.47
2018-08-20T00:35:51.197Z,13.57
2018-08-20T00:36:24.954Z,14.20
2018-08-20T00:36:58.931Z,14.47
2018-08-20T00:37:33.549Z,14.00
2018-08-20T00:38:07.313Z,13.70
2018-08-20T00:38:41.263Z,13.30
2018-08-20T00:39:14.991Z,13.90
2018-08-20T00:39:48.847Z,13.50
2018-08-20T00:40:22.596Z,14.53
2018-08-20T00:40:56.253Z,14.07
2018-08-20T00:41:30.012Z,14.10
2018-08-20T00:42:03.875Z,13.63
2018-08-20T00:42:37.575Z,14.07
2018-08-20T00:43:11.432Z,14.53
2018-08-20T00:43:45.338Z,15.35
2018-08-20T00:44:19.149Z,13.27
2018-08-20T00:44:53.001Z,13.30
2018-08-20T00:45:26.675Z,15.53
2018-08-20T00:46:00.488Z,14.17
2018-08-20T00:46:35.431Z,14.07
2018-08-20T00:47:09.310Z,13.33
2018-08-20T00:47:43.172Z,13.28
2018-08-20T00:48:16.985Z,13.27
2018-08-20T00:48:50.619Z,14.25
2018-08-20T00:49:24.348Z,14.80
2018-08-20T00:49:58.296Z,14.50
2018-08-20T00:50:32.614Z,14.00
2018-08-20T00:51:06.360Z,14.53
2018-08-20T00:51:40.129Z,15.37
2018-08-20T00:52:14.079Z,14.10
2018-08-20T00:52:47.836Z,14.70
2018-08-20T00:53:21.506Z,14.87
2018-08-20T00:53:55.213Z,13.33
2018-08-20T00:54:29.146Z,13.30
2018-08-20T00:55:03.228Z,13.77
2018-08-20T00:55:36.980Z,13.83
2018-08-20T00:56:10.955Z,13.17
2018-08-20T00:56:44.971Z,13.93
2018-08-20T00:57:18.667Z,13.63
2018-08-20T00:57:52.502Z,14.20
2018-08-20T00:58:26.821Z,14.07
2018-08-20T00:59:01.300Z,12.97
2018-08-20T00:59:35.332Z,13.43
2018-08-20T01:00:09.658Z,13.93
2018-08-20T01:00:43.380Z,14.00
2018-08-20T01:01:17.261Z,13.45
2018-08-20T01:01:51.702Z,13.58
2018-08-20T01:02:29.191Z,13.03
2018-08-20T01:03:03.781Z,13.27
2018-08-20T01:03:37.547Z,13.40
2018-08-20T01:04:11.490Z,13.50
2018-08-20T01:04:45.466Z,13.33
2018-08-20T01:05:19.294Z,13.37
2018-08-20T01:05:52.996Z,13.20
2018-08-20T01:06:26.913Z,13.23
2018-08-20T01:07:00.752Z,12.67
2018-08-20T01:07:34.545Z,12.45
2018-08-20T01:08:08.365Z,13.30
2018-08-20T01:08:41.985Z,13.03
2018-08-20T01:09:15.806Z,12.75
2018-08-20T01:09:49.510Z,13.25
2018-08-20T01:10:23.262Z,12.50
2018-08-20T01:10:57.075Z,13.37
2018-08-20T01:11:30.876Z,13.37
2018-08-20T01:12:05.034Z,11.87
2018-08-20T01:12:38.858Z,12.57
2018-08-20T01:13:12.757Z,12.47
2018-08-20T01:13:47.681Z,12.03
2018-08-20T01:14:21.364Z,11.60
2018-08-20T01:14:55.278Z,11.90
2018-08-20T01:15:29.246Z,12.23
2018-08-20T01:16:03.085Z,11.53
2018-08-20T01:16:36.948Z,11.50
2018-08-20T01:17:10.934Z,12.47
2018-08-20T01:17:44.550Z,12.20
2018-08-20T01:18:18.371Z,11.28
2018-08-20T01:18:52.451Z,12.63
2018-08-20T01:19:26.416Z,13.03
2018-08-20T01:20:00.311Z,12.60
2018-08-20T01:20:34.931Z,12.43
2018-08-20T01:21:08.821Z,12.10
2018-08-20T01:21:42.490Z,11.90
2018-08-20T01:22:16.703Z,12.07
2018-08-20T01:22:50.451Z,12.70
2018-08-20T01:23:24.236Z,12.17
2018-08-20T01:23:57.904Z,12.87
2018-08-20T01:24:31.696Z,12.77
2018-08-20T01:25:05.459Z,12.23
2018-08-20T01:25:39.474Z,12.07
2018-08-20T01:26:13.807Z,13.23
2018-08-20T01:26:47.667Z,12.07
2018-08-20T01:27:27.288Z,12.87
2018-08-20T01:28:01.192Z,12.80
2018-08-20T01:28:35.228Z,12.83
2018-08-20T01:29:09.171Z,12.00
2018-08-20T01:29:43.280Z,12.90
2018-08-20T01:30:17.039Z,12.23
2018-08-20T01:30:50.809Z,11.40
2018-08-20T01:31:24.580Z,12.30
2018-08-20T01:31:58.376Z,12.37
2018-08-20T01:32:32.096Z,12.60
2018-08-20T01:33:11.868Z,12.60
2018-08-20T01:33:45.575Z,12.88
2018-08-20T01:34:19.436Z,13.00
2018-08-20T01:34:53.136Z,13.43
2018-08-20T01:35:27.532Z,13.08
2018-08-20T01:36:01.396Z,12.50
2018-08-20T01:36:35.355Z,12.90
2018-08-20T01:37:09.126Z,11.53
2018-08-20T01:37:43.068Z,11.53
2018-08-20T01:38:17.024Z,12.37
2018-08-20T01:38:50.928Z,12.30
2018-08-20T01:39:24.537Z,12.35
2018-08-20T01:39:58.199Z,12.47
2018-08-20T01:40:32.192Z,12.53
2018-08-20T01:41:06.060Z,13.60
2018-08-20T01:41:39.975Z,11.90
2018-08-20T01:42:14.767Z,12.63
2018-08-20T01:42:48.357Z,12.60
2018-08-20T01:43:22.234Z,13.98
2018-08-20T01:43:56.171Z,12.63
2018-08-20T01:44:29.960Z,12.40
2018-08-20T01:45:04.528Z,12.57
2018-08-20T01:45:38.443Z,12.50
2018-08-20T01:46:12.267Z,12.88
2018-08-20T01:46:46.275Z,12.90
2018-08-20T01:47:20.094Z,12.70
2018-08-20T01:47:54.023Z,13.25
2018-08-20T01:48:27.943Z,12.77
2018-08-20T01:49:01.820Z,12.07
2018-08-20T01:49:36.068Z,12.07
2018-08-20T01:50:09.829Z,13.08
2018-08-20T01:50:43.833Z,12.77
2018-08-20T01:51:17.609Z,12.53
2018-08-20T01:51:51.467Z,12.20
2018-08-20T01:52:25.154Z,12.98
2018-08-20T01:52:58.872Z,13.47
2018-08-20T01:53:32.573Z,13.40
2018-08-20T01:54:06.465Z,12.97
2018-08-20T01:54:40.275Z,12.83
2018-08-20T01:55:14.085Z,12.45
2018-08-20T01:55:48.357Z,13.10
2018-08-20T01:56:22.108Z,12.30
2018-08-20T01:56:55.934Z,13.27
2018-08-20T01:57:29.888Z,12.40
2018-08-20T01:58:03.632Z,13.20
2018-08-20T01:58:37.608Z,12.35
2018-08-20T01:59:11.554Z,13.33
2018-08-20T01:59:45.349Z,12.13
2018-08-20T02:00:19.444Z,12.73
2018-08-20T02:00:53.290Z,12.90
2018-08-20T02:01:27.259Z,12.87
2018-08-20T02:02:01.204Z,12.50
2018-08-20T02:02:35.380Z,12.57
2018-08-20T02:03:09.099Z,13.95
2018-08-20T02:03:43.013Z,12.30
2018-08-20T02:04:17.426Z,12.93
2018-08-20T02:04:51.211Z,14.23
2018-08-20T02:05:24.992Z,12.77
2018-08-20T02:05:58.936Z,12.80
2018-08-20T02:06:32.768Z,13.07
2018-08-20T02:07:06.716Z,12.40
2018-08-20T02:07:40.803Z,12.10
2018-08-20T02:08:14.858Z,12.73
2018-08-20T02:08:48.865Z,12.20
2018-08-20T02:09:22.971Z,12.63
2018-08-20T02:09:57.932Z,13.27
2018-08-20T02:10:32.000Z,12.73
2018-08-20T02:11:05.897Z,12.63
2018-08-20T02:11:39.747Z,12.75
2018-08-20T02:12:13.376Z,13.23
2018-08-20T02:12:47.417Z,13.13
2018-08-20T02:13:22.685Z,12.93
2018-08-20T02:13:57.930Z,12.53
2018-08-20T02:14:31.818Z,13.13
2018-08-20T02:15:05.756Z,13.03
2018-08-20T02:15:39.548Z,13.33
2018-08-20T02:16:13.487Z,13.13
2018-08-20T02:16:47.648Z,13.53
2018-08-20T02:17:21.516Z,13.83
2018-08-20T02:17:55.585Z,13.28
2018-08-20T02:18:29.654Z,14.37
2018-08-20T02:19:03.650Z,13.07
2018-08-20T02:19:37.574Z,13.07
2018-08-20T02:20:11.680Z,13.10
2018-08-20T02:20:45.463Z,13.57
2018-08-20T02:21:19.560Z,13.10
2018-08-20T02:21:53.654Z,13.13
2018-08-20T02:22:27.422Z,14.05
2018-08-20T02:23:01.334Z,13.27
2018-08-20T02:23:35.139Z,13.75
2018-08-20T02:24:09.160Z,13.57
2018-08-20T02:24:42.959Z,13.40
2018-08-20T02:25:16.927Z,14.13
2018-08-20T02:25:50.741Z,14.33
2018-08-20T02:26:24.611Z,14.55
2018-08-20T02:26:58.472Z,13.37
2018-08-20T02:27:32.350Z,13.60
2018-08-20T02:28:06.140Z,13.90
2018-08-20T02:28:40.191Z,13.13
2018-08-20T02:29:13.956Z,13.40
2018-08-20T02:29:47.987Z,13.43
2018-08-20T02:30:22.006Z,13.10
2018-08-20T02:30:55.837Z,14.40
2018-08-20T02:31:29.874Z,14.67
2018-08-20T02:32:03.829Z,13.97
2018-08-20T02:32:37.970Z,13.83
2018-08-20T02:33:12.011Z,13.60
2018-08-20T02:33:45.785Z,14.13
2018-08-20T02:34:20.006Z,13.50
2018-08-20T02:34:53.826Z,14.37
2018-08-20T02:35:27.465Z,14.03
2018-08-20T02:36:01.204Z,14.63
2018-08-20T02:36:35.494Z,14.10
2018-08-20T02:37:09.252Z,13.73
2018-08-20T02:37:47.113Z,13.27
2018-08-20T02:38:21.155Z,13.87
2018-08-20T02:38:55.508Z,13.97
2018-08-20T02:39:29.159Z,13.97
2018-08-20T02:40:05.099Z,13.13
2018-08-20T02:40:38.802Z,13.77
2018-08-20T02:41:12.604Z,15.00
2018-08-20T02:41:46.440Z,14.07
2018-08-20T02:42:20.574Z,14.03
2018-08-20T02:42:54.619Z,13.87
2018-08-20T02:43:28.327Z,14.40
2018-08-20T02:44:02.501Z,14.10
2018-08-20T02:44:36.405Z,13.57
2018-08-20T02:45:13.717Z,14.03
2018-08-20T02:45:47.676Z,14.77
2018-08-20T02:46:33.249Z,14.20
2018-08-20T02:47:07.012Z,13.97
2018-08-20T02:47:41.651Z,13.33
2018-08-20T02:48:15.299Z,13.73
2018-08-20T02:48:49.072Z,14.33
2018-08-20T02:49:22.936Z,13.20
2018-08-20T02:49:56.785Z,15.63
2018-08-20T02:50:30.483Z,13.73
2018-08-20T02:51:04.243Z,14.27
2018-08-20T02:51:38.175Z,13.93
2018-08-20T02:52:11.988Z,14.00
2018-08-20T02:52:45.987Z,13.63
2018-08-20T02:53:19.878Z,13.75
2018-08-20T02:53:53.573Z,14.13
2018-08-20T02:54:27.557Z,14.33
2018-08-20T02:55:01.256Z,14.30
2018-08-20T02:55:35.244Z,14.37
2018-08-20T02:56:09.035Z,13.33
2018-08-20T02:56:42.937Z,14.90
2018-08-20T02:57:17.031Z,13.80
2018-08-20T02:57:50.909Z,14.10
2018-08-20T02:58:24.988Z,13.83
2018-08-20T02:58:58.971Z,13.83
2018-08-20T02:59:32.795Z,13.83
2018-08-20T03:00:08.873Z,14.60
2018-08-20T03:00:42.628Z,14.23
2018-08-20T03:01:16.555Z,14.43
2018-08-20T03:01:50.321Z,14.37
2018-08-20T03:02:24.311Z,14.83
2018-08-20T03:03:02.228Z,14.27
2018-08-20T03:03:36.061Z,14.40
2018-08-20T03:04:09.983Z,13.67
2018-08-20T03:04:43.792Z,15.30
2018-08-20T03:05:17.505Z,15.30
2018-08-20T03:05:51.387Z,13.90
2018-08-20T03:06:25.187Z,14.20
2018-08-20T03:06:59.179Z,14.50
2018-08-20T03:07:33.280Z,14.28
2018-08-20T03:08:07.264Z,13.57
2018-08-20T03:08:41.162Z,15.10
2018-08-20T03:09:15.552Z,13.77
2018-08-20T03:09:49.476Z,14.83
2018-08-20T03:10:23.694Z,13.63
2018-08-20T03:10:57.828Z,14.10
2018-08-20T03:11:31.721Z,14.23
2018-08-20T03:12:05.769Z,14.47
2018-08-20T03:12:39.878Z,14.10
2018-08-20T03:13:13.560Z,13.00
2018-08-20T03:13:47.685Z,16.40
2018-08-20T03:14:21.757Z,14.80
2018-08-20T03:14:55.910Z,14.07
2018-08-20T03:15:29.728Z,12.97
2018-08-20T03:16:03.683Z,14.23
2018-08-20T03:16:38.052Z,14.20
2018-08-20T03:17:11.847Z,14.63
2018-08-20T03:17:45.496Z,14.70
2018-08-20T03:18:19.201Z,14.20
2018-08-20T03:18:53.002Z,14.47
2018-08-20T03:19:27.020Z,15.17
2018-08-20T03:20:00.848Z,13.77
2018-08-20T03:20:34.752Z,15.10
2018-08-20T03:21:08.692Z,13.93
2018-08-20T03:21:42.577Z,14.33
2018-08-20T03:22:16.366Z,14.23
2018-08-20T03:22:50.344Z,14.30
2018-08-20T03:23:24.171Z,14.30
2018-08-20T03:23:57.967Z,13.47
2018-08-20T03:24:31.959Z,14.13
2018-08-20T03:25:06.235Z,14.60
2018-08-20T03:25:40.007Z,14.20
2018-08-20T03:26:13.956Z,14.23
2018-08-20T03:26:48.041Z,13.77
2018-08-20T03:27:21.840Z,14.03
2018-08-20T03:27:55.756Z,13.30
2018-08-20T03:28:29.692Z,14.23
2018-08-20T03:29:03.732Z,14.73
2018-08-20T03:29:37.451Z,13.90
2018-08-20T03:30:11.253Z,13.63
2018-08-20T03:30:45.056Z,14.37
2018-08-20T03:31:18.804Z,14.23
2018-08-20T03:31:52.511Z,14.20
2018-08-20T03:32:26.199Z,14.20
2018-08-20T03:32:59.991Z,14.27
2018-08-20T03:33:33.840Z,14.70
2018-08-20T03:34:07.611Z,13.80
2018-08-20T03:34:41.409Z,13.70
2018-08-20T03:35:15.356Z,14.30
2018-08-20T03:35:49.159Z,13.57
2018-08-20T03:36:23.248Z,14.17
2018-08-20T03:36:56.943Z,14.30
2018-08-20T03:37:30.947Z,14.80
2018-08-20T03:38:05.009Z,13.87
2018-08-20T03:38:38.931Z,14.57
2018-08-20T03:39:12.780Z,14.33
2018-08-20T03:39:46.684Z,13.60
2018-08-20T03:40:20.682Z,14.53
2018-08-20T03:40:54.623Z,13.40
2018-08-20T03:41:28.510Z,13.77
2018-08-20T03:42:02.915Z,14.87
2018-08-20T03:42:37.096Z,14.27
2018-08-20T03:43:10.915Z,13.97
2018-08-20T03:43:44.857Z,14.37
2018-08-20T03:44:19.687Z,14.63
2018-08-20T03:44:53.612Z,14.17
2018-08-20T03:45:27.699Z,12.90
2018-08-20T03:46:01.576Z,13.47
2018-08-20T03:46:35.508Z,13.80
2018-08-20T03:47:09.410Z,13.70
2018-08-20T03:47:43.246Z,13.67
2018-08-20T03:48:17.271Z,13.27
2018-08-20T03:48:51.376Z,14.07
2018-08-20T03:49:25.680Z,13.80
2018-08-20T03:49:59.452Z,13.67
2018-08-20T03:50:33.382Z,13.80
2018-08-20T03:51:07.188Z,13.63
2018-08-20T03:51:40.999Z,14.00
2018-08-20T03:52:14.982Z,14.03
2018-08-20T03:52:48.651Z,13.37
2018-08-20T03:53:22.483Z,14.27
2018-08-20T03:53:56.314Z,13.00
2018-08-20T03:54:30.332Z,13.73
2018-08-20T03:55:04.933Z,14.03
2018-08-20T03:55:38.627Z,13.17
2018-08-20T03:56:12.568Z,13.97
2018-08-20T03:56:46.532Z,13.72
2018-08-20T03:57:20.355Z,14.33
2018-08-20T03:57:54.402Z,13.43
2018-08-20T03:58:28.315Z,14.03
2018-08-20T03:59:02.066Z,13.30
2018-08-20T03:59:37.022Z,13.50
2018-08-20T04:00:14.160Z,13.70
2018-08-20T04:00:47.924Z,12.47
2018-08-20T04:01:21.816Z,12.37
2018-08-20T04:01:55.575Z,13.90
2018-08-20T04:02:29.465Z,13.60
2018-08-20T04:03:03.336Z,13.17
2018-08-20T04:03:37.652Z,13.30
2018-08-20T04:04:11.552Z,13.20
2018-08-20T04:04:45.400Z,12.57
2018-08-20T04:05:19.442Z,13.17
2018-08-20T04:05:53.192Z,13.20
2018-08-20T04:06:27.195Z,13.37
2018-08-20T04:07:02.640Z,11.83
2018-08-20T04:07:36.311Z,12.97
2018-08-20T04:08:10.119Z,13.50
2018-08-20T04:08:43.976Z,12.07
2018-08-20T04:09:17.702Z,12.00
2018-08-20T04:09:51.469Z,12.27
2018-08-20T04:10:25.267Z,11.67
2018-08-20T04:10:59.151Z,11.80
2018-08-20T04:11:32.956Z,11.30
2018-08-20T04:12:06.937Z,11.50
2018-08-20T04:12:40.790Z,11.50
2018-08-20T04:13:14.631Z,11.77
2018-08-20T04:13:48.520Z,11.70
2018-08-20T04:14:22.156Z,11.60
2018-08-20T04:14:56.145Z,11.00
2018-08-20T04:15:31.010Z,11.43
2018-08-20T04:16:04.704Z,10.60
2018-08-20T04:16:39.664Z,11.17
2018-08-20T04:17:13.585Z,12.43
2018-08-20T04:17:47.415Z,12.00
2018-08-20T04:18:21.144Z,12.03
2018-08-20T04:18:59.605Z,11.33
2018-08-20T04:19:40.400Z,10.93
2018-08-20T04:20:14.391Z,11.33
2018-08-20T04:20:48.129Z,10.80
2018-08-20T04:21:21.787Z,11.03
2018-08-20T04:21:55.545Z,10.87
2018-08-20T04:22:29.373Z,11.10
2018-08-20T04:23:03.259Z,11.20
2018-08-20T04:23:37.192Z,10.00
2018-08-20T04:24:11.052Z,10.18
2018-08-20T04:24:44.836Z,10.80
2018-08-20T04:25:18.764Z,9.70
2018-08-20T04:25:52.654Z,9.40
2018-08-20T04:26:26.545Z,10.37
2018-08-20T04:27:00.609Z,9.90
2018-08-20T04:27:34.393Z,9.30
2018-08-20T04:28:08.621Z,10.00
2018-08-20T04:28:42.516Z,9.50
2018-08-20T04:29:16.284Z,9.50
2018-08-20T04:29:50.215Z,10.13
2018-08-20T04:30:23.948Z,8.90
2018-08-20T04:30:58.719Z,10.37
2018-08-20T04:31:32.416Z,10.67
2018-08-20T04:32:07.314Z,9.73
2018-08-20T04:32:41.239Z,10.43
2018-08-20T04:33:15.104Z,10.13
2018-08-20T04:33:48.981Z,9.90
2018-08-20T04:34:23.126Z,10.30
2018-08-20T04:34:56.951Z,9.60
2018-08-20T04:35:30.736Z,8.90
2018-08-20T04:36:05.530Z,9.33
2018-08-20T04:36:39.734Z,9.63
2018-08-20T04:37:13.478Z,9.47
2018-08-20T04:37:47.278Z,10.13
2018-08-20T04:38:21.255Z,9.90
2018-08-20T04:38:54.993Z,8.87
2018-08-20T04:39:28.876Z,9.23
2018-08-20T04:40:02.851Z,9.63
2018-08-20T04:40:36.893Z,9.40
2018-08-20T04:41:10.778Z,9.23
2018-08-20T04:41:44.728Z,9.67
2018-08-20T04:42:18.433Z,9.40
2018-08-20T04:42:52.199Z,9.77
2018-08-20T04:43:26.127Z,8.30
2018-08-20T04:43:59.823Z,9.53
2018-08-20T04:44:33.565Z,9.17
2018-08-20T04:45:08.926Z,8.93
2018-08-20T04:45:42.889Z,8.53
2018-08-20T04:46:16.939Z,8.30
2018-08-20T04:46:51.040Z,8.90
2018-08-20T04:47:24.913Z,8.17
2018-08-20T04:47:58.836Z,8.80
2018-08-20T04:48:32.514Z,8.20
2018-08-20T04:49:06.403Z,8.40
2018-08-20T04:49:40.319Z,9.17
2018-08-20T04:50:14.490Z,9.10
2018-08-20T04:50:48.533Z,9.20
2018-08-20T04:51:22.443Z,8.77
2018-08-20T04:51:56.075Z,8.40
2018-08-20T04:52:30.130Z,7.87
2018-08-20T04:53:04.370Z,9.03
2018-08-20T04:53:38.313Z,8.87
2018-08-20T04:54:12.305Z,8.27
2018-08-20T04:54:46.272Z,8.70
2018-08-20T04:55:20.089Z,9.03
2018-08-20T04:55:54.138Z,8.50
2018-08-20T04:56:28.208Z,8.57
2018-08-20T04:57:01.947Z,8.30
2018-08-20T04:57:35.955Z,8.13
2018-08-20T04:58:09.714Z,8.00
2018-08-20T04:58:43.672Z,8.57
2018-08-20T04:59:17.523Z,8.07
2018-08-20T04:59:51.437Z,7.87
2018-08-20T05:00:25.192Z,7.33
2018-08-20T05:00:58.911Z,7.57
2018-08-20T05:01:32.739Z,8.03
2018-08-20T05:02:06.578Z,7.97
2018-08-20T05:02:41.059Z,7.73
2018-08-20T05:03:15.982Z,8.10
2018-08-20T05:03:49.960Z,6.93
2018-08-20T05:04:23.702Z,7.87
2018-08-20T05:04:57.771Z,7.93
2018-08-20T05:05:31.639Z,7.67
2018-08-20T05:06:05.973Z,6.83
2018-08-20T05:06:40.955Z,7.57
2018-08-20T05:07:15.599Z,7.63
2018-08-20T05:07:49.596Z,7.00
2018-08-20T05:08:23.328Z,6.63
2018-08-20T05:08:57.427Z,7.60
2018-08-20T05:09:31.151Z,7.37
2018-08-20T05:10:05.889Z,6.43
2018-08-20T05:10:39.696Z,7.77
2018-08-20T05:11:13.992Z,7.03
2018-08-20T05:11:47.840Z,7.03
2018-08-20T05:12:21.739Z,6.27
2018-08-20T05:12:55.606Z,7.13
2018-08-20T05:13:29.604Z,6.70
2018-08-20T05:14:03.519Z,6.93
2018-08-20T05:14:37.400Z,6.67
2018-08-20T05:15:11.174Z,6.63
2018-08-20T05:15:45.727Z,6.00
2018-08-20T05:16:19.344Z,6.67
2018-08-20T05:16:53.157Z,7.60
2018-08-20T05:17:27.276Z,6.70
2018-08-20T05:18:01.085Z,6.43
2018-08-20T05:18:36.268Z,6.43
2018-08-20T05:19:10.054Z,7.07
2018-08-20T05:19:43.902Z,6.47
2018-08-20T05:20:18.005Z,6.73
2018-08-20T05:20:51.990Z,6.13
2018-08-20T05:21:25.843Z,6.37
2018-08-20T05:21:59.705Z,6.23
2018-08-20T05:22:33.787Z,6.13
2018-08-20T05:23:07.575Z,5.97
2018-08-20T05:23:42.660Z,6.00
2018-08-20T05:24:16.945Z,5.50
2018-08-20T05:24:50.751Z,5.90
2018-08-20T05:25:24.690Z,5.93
2018-08-20T05:25:58.428Z,6.07
2018-08-20T05:26:32.218Z,6.57
2018-08-20T05:27:06.147Z,5.87
2018-08-20T05:27:40.024Z,6.10
2018-08-20T05:28:16.117Z,6.33
2018-08-20T05:28:50.015Z,6.23
2018-08-20T05:29:23.778Z,5.77
2018-08-20T05:29:57.564Z,5.63
2018-08-20T05:30:31.825Z,5.37
2018-08-20T05:31:05.845Z,5.63
2018-08-20T05:31:39.748Z,5.20
2018-08-20T05:32:13.826Z,5.57
2018-08-20T05:32:47.757Z,5.60
2018-08-20T05:33:21.588Z,5.60
2018-08-20T05:33:55.419Z,4.90
2018-08-20T05:34:29.413Z,5.70
2018-08-20T05:35:03.536Z,5.13
2018-08-20T05:35:37.333Z,5.80
2018-08-20T05:36:11.184Z,5.60
2018-08-20T05:36:44.916Z,6.20
2018-08-20T05:37:18.751Z,6.07
2018-08-20T05:37:52.502Z,6.60
2018-08-20T05:38:26.273Z,6.60
2018-08-20T05:39:00.267Z,5.73
2018-08-20T05:39:34.081Z,5.60
2018-08-20T05:40:07.981Z,6.43
2018-08-20T05:40:41.897Z,6.50
2018-08-20T05:41:15.860Z,5.90
2018-08-20T05:41:49.833Z,5.87
2018-08-20T05:42:23.728Z,6.10
2018-08-20T05:42:57.551Z,6.00
2018-08-20T05:43:31.477Z,5.80
2018-08-20T05:44:05.320Z,5.73
2018-08-20T05:44:39.204Z,5.53
2018-08-20T05:45:12.947Z,5.43
2018-08-20T05:45:47.129Z,5.37
2018-08-20T05:46:20.938Z,5.80
2018-08-20T05:46:54.849Z,6.07
2018-08-20T05:47:29.010Z,5.70
2018-08-20T05:48:02.751Z,5.27
2018-08-20T05:48:36.471Z,5.50
2018-08-20T05:49:10.397Z,6.07
2018-08-20T05:49:44.204Z,5.50
2018-08-20T05:50:18.160Z,5.73
2018-08-20T05:50:52.405Z,6.47
2018-08-20T05:51:26.387Z,6.30
2018-08-20T05:52:00.347Z,6.43
2018-08-20T05:52:34.434Z,6.13
2018-08-20T05:53:08.337Z,6.57
2018-08-20T05:53:42.038Z,5.73
2018-08-20T05:54:15.876Z,6.00
2018-08-20T05:54:49.751Z,6.30
2018-08-20T05:55:23.657Z,5.93
2018-08-20T05:55:57.532Z,6.43
2018-08-20T05:56:31.536Z,6.10
2018-08-20T05:57:05.555Z,6.07
2018-08-20T05:57:39.301Z,6.73
2018-08-20T05:58:13.160Z,6.63
2018-08-20T05:58:46.780Z,6.90
2018-08-20T05:59:21.335Z,6.70
2018-08-20T05:59:55.375Z,6.80
2018-08-20T06:00:29.435Z,6.67
2018-08-20T06:01:03.716Z,6.73
2018-08-20T06:01:37.390Z,6.90
2018-08-20T06:02:11.297Z,7.00
2018-08-20T06:02:46.136Z,6.77
2018-08-20T06:03:19.904Z,7.13
2018-08-20T06:03:53.925Z,6.30
2018-08-20T06:04:28.435Z,6.77
2018-08-20T06:05:02.413Z,7.23
2018-08-20T06:05:36.571Z,6.90
2018-08-20T06:06:10.303Z,7.17
2018-08-20T06:06:44.085Z,7.13
2018-08-20T06:07:17.790Z,7.37
2018-08-20T06:07:51.874Z,7.30
2018-08-20T06:08:25.890Z,7.13
2018-08-20T06:08:59.684Z,6.97
2018-08-20T06:09:33.572Z,7.40
2018-08-20T06:10:08.563Z,7.30
2018-08-20T06:10:42.484Z,7.47
2018-08-20T06:11:16.251Z,7.50
2018-08-20T06:11:50.097Z,6.83
2018-08-20T06:12:24.200Z,7.67
2018-08-20T06:12:58.500Z,6.97
2018-08-20T06:13:32.124Z,7.53
2018-08-20T06:14:06.079Z,6.70
2018-08-20T06:14:40.043Z,6.20
2018-08-20T06:15:14.251Z,7.00
2018-08-20T06:15:48.015Z,6.77
2018-08-20T06:16:21.828Z,6.50
2018-08-20T06:16:55.799Z,6.70
2018-08-20T06:17:29.646Z,6.13
2018-08-20T06:18:03.712Z,6.47
2018-08-20T06:18:37.896Z,7.27
2018-08-20T06:19:11.876Z,7.43
2018-08-20T06:19:45.908Z,7.57
2018-08-20T06:20:21.081Z,6.90
2018-08-20T06:20:55.812Z,7.17
2018-08-20T06:21:30.066Z,7.53
2018-08-20T06:22:03.842Z,7.20
2018-08-20T06:22:37.986Z,7.30
2018-08-20T06:23:11.905Z,6.97
2018-08-20T06:23:45.760Z,7.27
2018-08-20T06:24:20.268Z,8.10
2018-08-20T06:24:54.010Z,6.57
2018-08-20T06:25:29.222Z,7.30
2018-08-20T06:26:03.060Z,8.20
2018-08-20T06:26:37.028Z,7.93
2018-08-20T06:27:11.185Z,7.03
2018-08-20T06:27:45.052Z,7.67
2018-08-20T06:28:18.970Z,8.70
2018-08-20T06:28:52.937Z,7.27
2018-08-20T06:29:27.161Z,7.20
2018-08-20T06:30:01.176Z,6.90
2018-08-20T06:30:35.025Z,7.27
2018-08-20T06:31:08.864Z,7.90
2018-08-20T06:31:42.673Z,7.90
2018-08-20T06:32:16.619Z,8.37
2018-08-20T06:32:50.602Z,8.30
2018-08-20T06:33:24.729Z,8.50
2018-08-20T06:33:58.548Z,7.47
2018-08-20T06:34:32.480Z,8.03
2018-08-20T06:35:08.052Z,7.30
2018-08-20T06:35:41.973Z,8.13
2018-08-20T06:36:15.967Z,8.33
2018-08-20T06:36:49.891Z,7.20
2018-08-20T06:37:23.909Z,7.73
2018-08-20T06:37:57.853Z,7.63
2018-08-20T06:38:31.857Z,7.80
2018-08-20T06:39:07.363Z,8.00
2018-08-20T06:39:41.140Z,8.20
2018-08-20T06:40:15.029Z,8.47
2018-08-20T06:40:48.944Z,8.40
2018-08-20T06:41:23.384Z,7.83
2018-08-20T06:41:58.611Z,8.20
2018-08-20T06:42:33.412Z,7.40
2018-08-20T06:43:07.299Z,8.83
2018-08-20T06:43:41.111Z,8.30
2018-08-20T06:44:15.173Z,8.10
2018-08-20T06:44:48.789Z,9.20
2018-08-20T06:45:22.535Z,7.73
2018-08-20T06:45:56.410Z,7.80
2018-08-20T06:46:31.093Z,8.77
2018-08-20T06:47:05.348Z,7.87
2018-08-20T06:47:39.508Z,7.93
2018-08-20T06:48:13.299Z,7.93
2018-08-20T06:48:47.143Z,7.50
2018-08-20T06:49:20.826Z,7.53
2018-08-20T06:49:54.885Z,8.03
2018-08-20T06:50:28.712Z,7.97
2018-08-20T06:51:02.568Z,8.93
2018-08-20T06:51:36.919Z,7.93
2018-08-20T06:52:10.742Z,8.57
2018-08-20T06:52:45.437Z,8.50
2018-08-20T06:53:19.296Z,8.63
2018-08-20T06:53:53.256Z,8.50
2018-08-20T06:54:27.002Z,8.20
2018-08-20T06:55:01.246Z,7.93
2018-08-20T06:55:35.860Z,9.33
2018-08-20T06:56:09.715Z,9.20
2018-08-20T06:56:43.691Z,9.10
2018-08-20T06:57:17.596Z,9.23
2018-08-20T06:57:51.287Z,9.73
2018-08-20T06:58:25.044Z,8.63
2018-08-20T06:58:58.856Z,9.50
2018-08-20T06:59:32.699Z,9.33
2018-08-20T07:00:08.383Z,9.10
2018-08-20T07:00:42.396Z,8.30
2018-08-20T07:01:16.270Z,9.27
2018-08-20T07:01:50.007Z,9.13
2018-08-20T07:02:23.983Z,9.67
2018-08-20T07:02:58.372Z,9.43
2018-08-20T07:03:32.285Z,9.17
2018-08-20T07:04:06.446Z,9.10
2018-08-20T07:04:40.812Z,9.50
2018-08-20T07:05:14.848Z,9.00
2018-08-20T07:05:48.647Z,8.70
2018-08-20T07:06:22.316Z,8.47
2018-08-20T07:06:56.168Z,9.30
2018-08-20T07:07:29.959Z,9.40
2018-08-20T07:08:03.873Z,10.00
2018-08-20T07:08:37.783Z,9.23
2018-08-20T07:09:11.595Z,8.67
2018-08-20T07:09:45.373Z,8.67
2018-08-20T07:10:19.220Z,8.70
2018-08-20T07:10:53.117Z,9.67
2018-08-20T07:11:27.000Z,10.20
2018-08-20T07:12:00.980Z,9.73
2018-08-20T07:12:36.006Z,9.83
2018-08-20T07:13:21.604Z,9.33
2018-08-20T07:13:55.500Z,9.97
2018-08-20T07:14:29.580Z,11.00
2018-08-20T07:15:05.557Z,10.37
2018-08-20T07:15:41.057Z,10.07
2018-08-20T07:16:15.351Z,9.50
2018-08-20T07:16:52.162Z,10.20
2018-08-20T07:17:27.157Z,10.63
2018-08-20T07:18:01.381Z,10.37
2018-08-20T07:18:36.651Z,10.77
2018-08-20T07:19:10.884Z,10.80
2018-08-20T07:19:45.008Z,9.58
2018-08-20T07:20:18.683Z,9.67
2018-08-20T07:20:52.655Z,10.90
2018-08-20T07:21:26.288Z,10.03
2018-08-20T07:22:00.015Z,10.17
2018-08-20T07:22:34.036Z,10.70
2018-08-20T07:23:07.980Z,11.23
2018-08-20T07:23:41.924Z,10.07
2018-08-20T07:24:15.776Z,11.23
2018-08-20T07:24:49.756Z,11.60
2018-08-20T07:25:23.940Z,11.30
2018-08-20T07:25:57.723Z,12.07
2018-08-20T07:26:31.544Z,10.60
2018-08-20T07:27:05.551Z,10.67